• Join FlightAware (Why Join?)
  • Login
  • US Flag 
04:16AM EDT


 

Airport Tracker/Info


-or-


 

Live Flight TrackerFlight Track Log ✈ EMD21 ✈ 25-Sep-2013 ✈ KMLC - KFYV

Flight Track Log - Related Links

Times and Time Zones

All times are in EDT time to prevent confusion due to time zone crossing. See the EMD21 flight status page for this flight to view local times or setup timezone preferences in your user account.

Time Position Orientation Groundspeed Altitude Reporting Facility
EDT Latitude Longitude Course Direction KTS MPH feet Rate Location/Type
10:05AM 34.9486 -95.7189 55° Northeast 198 228 4,400  Level Fort Worth Center
10:06AM 34.9708 -95.6806 55° Northeast 159 183 5,800 1,260 Climbing Fort Worth Center
10:07AM 34.9994 -95.6419 48° Northeast 136 157 7,000 1,200 Climbing Fort Worth Center
10:08AM 35.0242 -95.6058 50° Northeast 136 157 8,200 1,200 Climbing Fort Worth Center
10:09AM 35.0528 -95.5672 48° Northeast 136 157 9,400 1,140 Climbing Fort Worth Center
10:10AM 35.0811 -95.5208 53° Northeast 147 169 10,500 1,020 Climbing Fort Worth Center
10:11AM 35.1119 -95.4772 49° Northeast 159 183 11,500 720 Climbing Fort Worth Center
10:12AM 35.1444 -95.4331 48° Northeast 165 190 12,000 240 Climbing Fort Worth Center
10:13AM 35.1853 -95.3764 49° Northeast 188 216 12,000  Level Fort Worth Center
10:14AM 35.2219 -95.3247 49° Northeast 215 247 12,000  Level Fort Worth Center
10:16AM 35.2725 -95.2473 51° Northeast  Level FlightAware Approximate
10:23AM 35.4908 -94.8831 49° Northeast  Level FlightAware Approximate
10:24AM 35.5257 -94.8344 49° Northeast  Level FlightAware Approximate
10:25AM 35.5605 -94.7857 49° Northeast  Level FlightAware Approximate
10:26AM 35.5954 -94.7369 49° Northeast  Level FlightAware Approximate
10:27AM 35.6302 -94.6881 49° Northeast  Level FlightAware Approximate
10:28AM 35.6650 -94.6393 49° Northeast  Level FlightAware Approximate
10:29AM 35.6998 -94.5904 49° Northeast  Level FlightAware Approximate
10:30AM 35.7340 -94.5408 51° Northeast  Level FlightAware Approximate
10:31AM 35.7675 -94.4905 51° Northeast  Level FlightAware Approximate
10:32AM 35.8010 -94.4402 51° Northeast  Level FlightAware Approximate
10:33AM 35.8358 -94.3912 47° Northeast  Level FlightAware Approximate
10:34AM 35.8667 -94.3410 90° East  Level FlightAware Approximate
10:35AM 35.9036 -94.3063 47° Northeast  Level FlightAware Approximate
10:36AM 35.9388 -94.2577 53° Northeast  Level FlightAware Approximate